sensor_id;sensor_type;location;lat;lon;timestamp;temperature;humidity
39095;DHT22;24840;47.508;19.376;2022-11-20T00:01:10;2.00;99.90
39095;DHT22;24840;47.508;19.376;2022-11-20T00:03:36;1.90;99.90
39095;DHT22;24840;47.508;19.376;2022-11-20T00:06:04;2.00;99.90
39095;DHT22;24840;47.508;19.376;2022-11-20T00:08:31;2.00;99.90
39095;DHT22;24840;47.508;19.376;2022-11-20T00:10:57;2.00;99.90
39095;DHT22;24840;47.508;19.376;2022-11-20T00:13:23;1.90;99.90
39095;DHT22;24840;47.508;19.376;2022-11-20T00:15:56;1.80;99.90
39095;DHT22;24840;47.508;19.376;2022-11-20T00:18:22;1.90;99.90
39095;DHT22;24840;47.508;19.376;2022-11-20T00:20:48;2.00;99.90
39095;DHT22;24840;47.508;19.376;2022-11-20T00:23:14;2.10;99.90
39095;DHT22;24840;47.508;19.376;2022-11-20T00:25:39;2.00;99.90
39095;DHT22;24840;47.508;19.376;2022-11-20T00:28:05;1.90;99.90
39095;DHT22;24840;47.508;19.376;2022-11-20T00:30:31;2.10;99.90
39095;DHT22;24840;47.508;19.376;2022-11-20T00:32:57;2.20;99.90
39095;DHT22;24840;47.508;19.376;2022-11-20T00:35:23;2.10;99.90
39095;DHT22;24840;47.508;19.376;2022-11-20T00:37:49;2.10;99.90
39095;DHT22;24840;47.508;19.376;2022-11-20T00:40:15;2.10;99.90
39095;DHT22;24840;47.508;19.376;2022-11-20T00:42:41;2.10;99.90
39095;DHT22;24840;47.508;19.376;2022-11-20T00:45:07;2.10;99.90
39095;DHT22;24840;47.508;19.376;2022-11-20T00:47:34;2.20;99.90
39095;DHT22;24840;47.508;19.376;2022-11-20T00:50:00;2.20;99.90
39095;DHT22;24840;47.508;19.376;2022-11-20T00:52:26;2.20;99.90
39095;DHT22;24840;47.508;19.376;2022-11-20T00:54:52;2.10;99.90
39095;DHT22;24840;47.508;19.376;2022-11-20T00:57:18;2.20;99.90
39095;DHT22;24840;47.508;19.376;2022-11-20T00:59:44;2.20;99.90
39095;DHT22;24840;47.508;19.376;2022-11-20T01:02:10;2.20;99.90
39095;DHT22;24840;47.508;19.376;2022-11-20T01:04:37;2.10;99.90
39095;DHT22;24840;47.508;19.376;2022-11-20T01:07:03;2.00;99.90
39095;DHT22;24840;47.508;19.376;2022-11-20T01:09:29;2.10;99.90
39095;DHT22;24840;47.508;19.376;2022-11-20T01:11:55;2.00;99.90
39095;DHT22;24840;47.508;19.376;2022-11-20T01:14:21;2.00;99.90
39095;DHT22;24840;47.508;19.376;2022-11-20T01:16:49;2.00;99.90
39095;DHT22;24840;47.508;19.376;2022-11-20T01:19:18;2.00;99.90
39095;DHT22;24840;47.508;19.376;2022-11-20T01:21:47;2.10;99.90
39095;DHT22;24840;47.508;19.376;2022-11-20T01:24:15;2.00;99.90
39095;DHT22;24840;47.508;19.376;2022-11-20T01:26:43;2.00;99.90
39095;DHT22;24840;47.508;19.376;2022-11-20T01:29:16;2.00;99.90
39095;DHT22;24840;47.508;19.376;2022-11-20T01:31:54;2.00;99.90
39095;DHT22;24840;47.508;19.376;2022-11-20T01:34:24;2.00;99.90
39095;DHT22;24840;47.508;19.376;2022-11-20T01:36:55;2.00;99.90
39095;DHT22;24840;47.508;19.376;2022-11-20T01:39:27;1.90;99.90
39095;DHT22;24840;47.508;19.376;2022-11-20T01:42:05;1.90;99.90
39095;DHT22;24840;47.508;19.376;2022-11-20T01:48:14;2.00;99.90
39095;DHT22;24840;47.508;19.376;2022-11-20T01:50:51;2.10;99.90
39095;DHT22;24840;47.508;19.376;2022-11-20T01:53:25;2.00;99.90
39095;DHT22;24840;47.508;19.376;2022-11-20T01:55:55;2.00;99.90
39095;DHT22;24840;47.508;19.376;2022-11-20T01:58:28;2.10;99.90
39095;DHT22;24840;47.508;19.376;2022-11-20T02:00:56;2.10;99.90
39095;DHT22;24840;47.508;19.376;2022-11-20T02:03:22;2.00;99.90
39095;DHT22;24840;47.508;19.376;2022-11-20T02:06:07;2.00;99.90
39095;DHT22;24840;47.508;19.376;2022-11-20T02:08:37;2.00;99.90
39095;DHT22;24840;47.508;19.376;2022-11-20T02:11:03;2.10;99.90
39095;DHT22;24840;47.508;19.376;2022-11-20T02:13:30;1.90;99.90
39095;DHT22;24840;47.508;19.376;2022-11-20T02:16:19;1.90;99.90
39095;DHT22;24840;47.508;19.376;2022-11-20T02:18:47;2.00;99.90
39095;DHT22;24840;47.508;19.376;2022-11-20T02:21:37;2.10;99.90
39095;DHT22;24840;47.508;19.376;2022-11-20T02:24:14;2.00;99.90
39095;DHT22;24840;47.508;19.376;2022-11-20T02:26:54;2.10;99.90
39095;DHT22;24840;47.508;19.376;2022-11-20T02:29:42;2.00;99.90
39095;DHT22;24840;47.508;19.376;2022-11-20T02:32:26;2.00;99.90
39095;DHT22;24840;47.508;19.376;2022-11-20T02:34:52;2.10;99.90
39095;DHT22;24840;47.508;19.376;2022-11-20T02:37:20;2.10;99.90
39095;DHT22;24840;47.508;19.376;2022-11-20T02:39:49;2.10;99.90
39095;DHT22;24840;47.508;19.376;2022-11-20T02:42:16;2.10;99.90
39095;DHT22;24840;47.508;19.376;2022-11-20T02:44:41;2.20;99.90
39095;DHT22;24840;47.508;19.376;2022-11-20T02:47:07;2.20;99.90
39095;DHT22;24840;47.508;19.376;2022-11-20T02:49:33;2.20;99.90
39095;DHT22;24840;47.508;19.376;2022-11-20T02:52:00;2.10;99.90
39095;DHT22;24840;47.508;19.376;2022-11-20T02:54:26;2.30;99.90
39095;DHT22;24840;47.508;19.376;2022-11-20T02:56:52;2.30;99.90
39095;DHT22;24840;47.508;19.376;2022-11-20T02:59:18;2.30;99.90
39095;DHT22;24840;47.508;19.376;2022-11-20T03:01:44;2.30;99.90
39095;DHT22;24840;47.508;19.376;2022-11-20T03:04:10;2.00;99.90
39095;DHT22;24840;47.508;19.376;2022-11-20T03:06:36;2.10;99.90
39095;DHT22;24840;47.508;19.376;2022-11-20T03:09:02;2.20;99.90
39095;DHT22;24840;47.508;19.376;2022-11-20T03:11:28;2.30;99.90
39095;DHT22;24840;47.508;19.376;2022-11-20T03:13:54;2.20;99.90
39095;DHT22;24840;47.508;19.376;2022-11-20T03:16:22;2.20;99.90
39095;DHT22;24840;47.508;19.376;2022-11-20T03:18:48;2.10;99.90
39095;DHT22;24840;47.508;19.376;2022-11-20T03:21:16;2.00;99.90
39095;DHT22;24840;47.508;19.376;2022-11-20T03:23:42;2.00;99.90
39095;DHT22;24840;47.508;19.376;2022-11-20T03:26:21;2.10;99.90
39095;DHT22;24840;47.508;19.376;2022-11-20T03:28:52;2.20;99.90
39095;DHT22;24840;47.508;19.376;2022-11-20T03:31:27;2.20;99.90
39095;DHT22;24840;47.508;19.376;2022-11-20T03:34:02;2.30;99.90
39095;DHT22;24840;47.508;19.376;2022-11-20T03:36:33;2.10;99.90
39095;DHT22;24840;47.508;19.376;2022-11-20T03:39:15;2.10;99.90
39095;DHT22;24840;47.508;19.376;2022-11-20T03:41:52;2.20;99.90
39095;DHT22;24840;47.508;19.376;2022-11-20T03:44:21;2.10;99.90
39095;DHT22;24840;47.508;19.376;2022-11-20T03:46:47;2.20;99.90
39095;DHT22;24840;47.508;19.376;2022-11-20T03:49:19;2.30;99.90
39095;DHT22;24840;47.508;19.376;2022-11-20T03:51:52;2.30;99.90
39095;DHT22;24840;47.508;19.376;2022-11-20T03:54:23;2.30;99.90
39095;DHT22;24840;47.508;19.376;2022-11-20T03:56:54;2.20;99.90
39095;DHT22;24840;47.508;19.376;2022-11-20T03:59:26;2.30;99.90
39095;DHT22;24840;47.508;19.376;2022-11-20T04:01:58;2.30;99.90
39095;DHT22;24840;47.508;19.376;2022-11-20T04:04:28;2.30;99.90
39095;DHT22;24840;47.508;19.376;2022-11-20T04:06:59;2.20;99.90
39095;DHT22;24840;47.508;19.376;2022-11-20T04:09:27;2.30;99.90
39095;DHT22;24840;47.508;19.376;2022-11-20T04:11:53;2.30;99.90
39095;DHT22;24840;47.508;19.376;2022-11-20T04:14:19;2.20;99.90
39095;DHT22;24840;47.508;19.376;2022-11-20T04:16:45;2.20;99.90
39095;DHT22;24840;47.508;19.376;2022-11-20T04:19:13;2.20;99.90
39095;DHT22;24840;47.508;19.376;2022-11-20T04:21:40;2.20;99.90
39095;DHT22;24840;47.508;19.376;2022-11-20T04:24:07;2.20;99.90
39095;DHT22;24840;47.508;19.376;2022-11-20T04:26:33;2.30;99.90
39095;DHT22;24840;47.508;19.376;2022-11-20T04:29:00;2.30;99.90
39095;DHT22;24840;47.508;19.376;2022-11-20T04:31:32;2.30;99.90
39095;DHT22;24840;47.508;19.376;2022-11-20T04:34:03;2.40;99.90
39095;DHT22;24840;47.508;19.376;2022-11-20T04:36:29;2.40;99.90
39095;DHT22;24840;47.508;19.376;2022-11-20T04:38:57;2.30;99.90
39095;DHT22;24840;47.508;19.376;2022-11-20T04:41:28;2.20;99.90
39095;DHT22;24840;47.508;19.376;2022-11-20T04:43:59;2.20;99.90
39095;DHT22;24840;47.508;19.376;2022-11-20T04:46:29;2.20;99.90
39095;DHT22;24840;47.508;19.376;2022-11-20T04:48:55;2.30;99.90
39095;DHT22;24840;47.508;19.376;2022-11-20T04:51:21;2.30;99.90
39095;DHT22;24840;47.508;19.376;2022-11-20T04:53:47;2.20;99.90
39095;DHT22;24840;47.508;19.376;2022-11-20T04:56:13;2.20;99.90
39095;DHT22;24840;47.508;19.376;2022-11-20T04:58:40;2.30;99.90
39095;DHT22;24840;47.508;19.376;2022-11-20T05:01:11;2.30;99.90
39095;DHT22;24840;47.508;19.376;2022-11-20T05:03:39;2.30;99.90
39095;DHT22;24840;47.508;19.376;2022-11-20T05:06:05;2.30;99.90
39095;DHT22;24840;47.508;19.376;2022-11-20T05:08:33;2.30;99.90
39095;DHT22;24840;47.508;19.376;2022-11-20T05:11:07;2.40;99.90
39095;DHT22;24840;47.508;19.376;2022-11-20T05:13:33;2.30;99.90
39095;DHT22;24840;47.508;19.376;2022-11-20T05:16:07;2.30;99.90
39095;DHT22;24840;47.508;19.376;2022-11-20T05:18:35;2.40;99.90
39095;DHT22;24840;47.508;19.376;2022-11-20T05:21:01;2.40;99.90
39095;DHT22;24840;47.508;19.376;2022-11-20T05:23:29;2.30;99.90
39095;DHT22;24840;47.508;19.376;2022-11-20T05:25:56;2.40;99.90
39095;DHT22;24840;47.508;19.376;2022-11-20T05:28:23;2.40;99.90
39095;DHT22;24840;47.508;19.376;2022-11-20T05:30:50;2.40;99.90
39095;DHT22;24840;47.508;19.376;2022-11-20T05:33:16;2.40;99.90
39095;DHT22;24840;47.508;19.376;2022-11-20T05:35:43;2.30;99.90
39095;DHT22;24840;47.508;19.376;2022-11-20T05:38:09;2.40;99.90
39095;DHT22;24840;47.508;19.376;2022-11-20T05:40:35;2.40;99.90
39095;DHT22;24840;47.508;19.376;2022-11-20T05:43:01;2.40;99.90
39095;DHT22;24840;47.508;19.376;2022-11-20T05:45:28;2.40;99.90
39095;DHT22;24840;47.508;19.376;2022-11-20T05:47:57;2.30;99.90
39095;DHT22;24840;47.508;19.376;2022-11-20T05:50:23;2.10;99.90
39095;DHT22;24840;47.508;19.376;2022-11-20T05:52:49;2.10;99.90
39095;DHT22;24840;47.508;19.376;2022-11-20T05:55:15;2.20;99.90
39095;DHT22;24840;47.508;19.376;2022-11-20T05:57:40;2.30;99.90
39095;DHT22;24840;47.508;19.376;2022-11-20T06:00:07;2.40;99.90
39095;DHT22;24840;47.508;19.376;2022-11-20T06:02:35;2.40;99.90
39095;DHT22;24840;47.508;19.376;2022-11-20T06:05:01;2.30;99.90
39095;DHT22;24840;47.508;19.376;2022-11-20T06:07:27;2.30;99.90
39095;DHT22;24840;47.508;19.376;2022-11-20T06:09:53;2.30;99.90
39095;DHT22;24840;47.508;19.376;2022-11-20T06:12:19;2.40;99.90
39095;DHT22;24840;47.508;19.376;2022-11-20T06:14:45;2.30;99.90
39095;DHT22;24840;47.508;19.376;2022-11-20T06:17:11;2.30;99.90
39095;DHT22;24840;47.508;19.376;2022-11-20T06:19:37;2.30;99.90
39095;DHT22;24840;47.508;19.376;2022-11-20T06:22:03;2.30;99.90
39095;DHT22;24840;47.508;19.376;2022-11-20T06:24:29;2.30;99.90
39095;DHT22;24840;47.508;19.376;2022-11-20T06:26:55;2.40;99.90
39095;DHT22;24840;47.508;19.376;2022-11-20T06:29:21;2.30;99.90
39095;DHT22;24840;47.508;19.376;2022-11-20T06:31:47;2.40;99.90
39095;DHT22;24840;47.508;19.376;2022-11-20T06:34:13;2.30;99.90
39095;DHT22;24840;47.508;19.376;2022-11-20T06:36:39;2.30;99.90
39095;DHT22;24840;47.508;19.376;2022-11-20T06:39:09;2.10;99.90
39095;DHT22;24840;47.508;19.376;2022-11-20T06:41:36;2.10;99.90
39095;DHT22;24840;47.508;19.376;2022-11-20T06:44:05;2.20;99.90
39095;DHT22;24840;47.508;19.376;2022-11-20T06:46:34;2.30;99.90
39095;DHT22;24840;47.508;19.376;2022-11-20T06:49:00;2.40;99.90
39095;DHT22;24840;47.508;19.376;2022-11-20T06:51:26;2.50;99.90
39095;DHT22;24840;47.508;19.376;2022-11-20T06:53:53;2.40;99.90
39095;DHT22;24840;47.508;19.376;2022-11-20T06:56:19;2.50;99.90
39095;DHT22;24840;47.508;19.376;2022-11-20T06:58:45;2.60;99.90
39095;DHT22;24840;47.508;19.376;2022-11-20T07:01:13;2.50;99.90
39095;DHT22;24840;47.508;19.376;2022-11-20T07:03:40;2.60;99.90
39095;DHT22;24840;47.508;19.376;2022-11-20T07:06:07;2.60;99.90
39095;DHT22;24840;47.508;19.376;2022-11-20T07:08:34;2.50;99.90
39095;DHT22;24840;47.508;19.376;2022-11-20T07:11:05;2.50;99.90
39095;DHT22;24840;47.508;19.376;2022-11-20T07:13:32;2.70;99.90
39095;DHT22;24840;47.508;19.376;2022-11-20T07:16:02;2.70;99.90
39095;DHT22;24840;47.508;19.376;2022-11-20T07:18:29;2.70;99.90
39095;DHT22;24840;47.508;19.376;2022-11-20T07:20:55;2.80;99.90
39095;DHT22;24840;47.508;19.376;2022-11-20T07:23:21;2.70;99.90
39095;DHT22;24840;47.508;19.376;2022-11-20T07:25:47;2.70;99.90
39095;DHT22;24840;47.508;19.376;2022-11-20T07:28:13;2.80;99.90
39095;DHT22;24840;47.508;19.376;2022-11-20T07:30:39;2.90;99.90
39095;DHT22;24840;47.508;19.376;2022-11-20T07:33:05;3.00;99.90
39095;DHT22;24840;47.508;19.376;2022-11-20T07:35:31;3.10;99.90
39095;DHT22;24840;47.508;19.376;2022-11-20T07:37:58;3.00;99.90
39095;DHT22;24840;47.508;19.376;2022-11-20T07:40:24;3.00;99.90
39095;DHT22;24840;47.508;19.376;2022-11-20T07:42:51;3.10;99.90
39095;DHT22;24840;47.508;19.376;2022-11-20T07:45:19;3.10;99.90
39095;DHT22;24840;47.508;19.376;2022-11-20T07:47:45;3.10;99.90
39095;DHT22;24840;47.508;19.376;2022-11-20T07:50:11;3.00;99.90
39095;DHT22;24840;47.508;19.376;2022-11-20T07:52:37;3.10;99.90
39095;DHT22;24840;47.508;19.376;2022-11-20T07:55:04;3.10;99.90
39095;DHT22;24840;47.508;19.376;2022-11-20T07:57:31;3.20;99.90
39095;DHT22;24840;47.508;19.376;2022-11-20T07:59:57;3.20;99.90
39095;DHT22;24840;47.508;19.376;2022-11-20T08:02:24;3.20;99.90
39095;DHT22;24840;47.508;19.376;2022-11-20T08:04:52;3.20;99.90
39095;DHT22;24840;47.508;19.376;2022-11-20T08:07:18;3.20;99.90
39095;DHT22;24840;47.508;19.376;2022-11-20T08:09:45;3.30;99.90
39095;DHT22;24840;47.508;19.376;2022-11-20T08:12:19;3.30;99.90
39095;DHT22;24840;47.508;19.376;2022-11-20T08:15:05;3.30;99.90
39095;DHT22;24840;47.508;19.376;2022-11-20T08:17:33;3.30;99.90
39095;DHT22;24840;47.508;19.376;2022-11-20T08:20:00;3.40;99.90
39095;DHT22;24840;47.508;19.376;2022-11-20T08:22:27;3.40;99.90
39095;DHT22;24840;47.508;19.376;2022-11-20T08:28:07;3.40;99.90
39095;DHT22;24840;47.508;19.376;2022-11-20T08:30:35;3.30;99.90
39095;DHT22;24840;47.508;19.376;2022-11-20T08:33:07;3.40;99.90
39095;DHT22;24840;47.508;19.376;2022-11-20T08:35:37;3.40;99.90
39095;DHT22;24840;47.508;19.376;2022-11-20T08:38:08;3.50;99.90
39095;DHT22;24840;47.508;19.376;2022-11-20T08:40:35;3.60;99.90
39095;DHT22;24840;47.508;19.376;2022-11-20T08:43:02;3.70;99.90
39095;DHT22;24840;47.508;19.376;2022-11-20T08:45:29;3.50;99.90
39095;DHT22;24840;47.508;19.376;2022-11-20T08:48:00;3.70;99.90
39095;DHT22;24840;47.508;19.376;2022-11-20T08:50:29;3.70;99.90
39095;DHT22;24840;47.508;19.376;2022-11-20T08:53:05;3.70;99.90
39095;DHT22;24840;47.508;19.376;2022-11-20T08:55:31;3.70;99.90
39095;DHT22;24840;47.508;19.376;2022-11-20T08:57:57;3.80;99.90
39095;DHT22;24840;47.508;19.376;2022-11-20T09:00:23;3.90;99.90
39095;DHT22;24840;47.508;19.376;2022-11-20T09:02:49;3.90;99.90
39095;DHT22;24840;47.508;19.376;2022-11-20T09:05:15;4.10;99.90
39095;DHT22;24840;47.508;19.376;2022-11-20T09:07:41;4.20;99.90
39095;DHT22;24840;47.508;19.376;2022-11-20T09:10:07;4.30;99.90
39095;DHT22;24840;47.508;19.376;2022-11-20T09:12:34;4.30;99.90
39095;DHT22;24840;47.508;19.376;2022-11-20T09:15:00;4.20;99.90
39095;DHT22;24840;47.508;19.376;2022-11-20T09:17:26;4.20;99.90
39095;DHT22;24840;47.508;19.376;2022-11-20T09:19:51;4.20;99.90
39095;DHT22;24840;47.508;19.376;2022-11-20T09:22:18;4.20;99.90
39095;DHT22;24840;47.508;19.376;2022-11-20T09:24:43;4.20;99.90
39095;DHT22;24840;47.508;19.376;2022-11-20T09:27:09;4.40;99.90
39095;DHT22;24840;47.508;19.376;2022-11-20T11:19:14;6.90;99.90
39095;DHT22;24840;47.508;19.376;2022-11-20T11:21:50;6.70;99.90
39095;DHT22;24840;47.508;19.376;2022-11-20T11:24:28;6.70;99.90
39095;DHT22;24840;47.508;19.376;2022-11-20T11:26:59;6.90;99.90
39095;DHT22;24840;47.508;19.376;2022-11-20T11:29:29;6.90;99.90
39095;DHT22;24840;47.508;19.376;2022-11-20T11:32:12;7.10;99.90
39095;DHT22;24840;47.508;19.376;2022-11-20T11:58:57;7.20;99.90
39095;DHT22;24840;47.508;19.376;2022-11-20T12:07:39;7.10;99.90
39095;DHT22;24840;47.508;19.376;2022-11-20T12:16:36;7.10;99.90
39095;DHT22;24840;47.508;19.376;2022-11-20T12:19:02;7.40;99.90
39095;DHT22;24840;47.508;19.376;2022-11-20T12:24:50;7.50;99.90
39095;DHT22;24840;47.508;19.376;2022-11-20T12:55:11;7.30;99.90
39095;DHT22;24840;47.508;19.376;2022-11-20T12:57:58;7.20;99.90
39095;DHT22;24840;47.508;19.376;2022-11-20T13:00:25;7.10;99.90
39095;DHT22;24840;47.508;19.376;2022-11-20T13:08:08;6.90;99.90
39095;DHT22;24840;47.508;19.376;2022-11-20T13:10:50;6.90;99.90
39095;DHT22;24840;47.508;19.376;2022-11-20T13:16:25;7.10;99.90
39095;DHT22;24840;47.508;19.376;2022-11-20T13:18:54;6.90;99.90
39095;DHT22;24840;47.508;19.376;2022-11-20T13:21:22;7.00;99.90
39095;DHT22;24840;47.508;19.376;2022-11-20T13:23:48;6.90;99.90
39095;DHT22;24840;47.508;19.376;2022-11-20T13:26:22;6.90;99.90
39095;DHT22;24840;47.508;19.376;2022-11-20T13:29:07;6.70;99.90
39095;DHT22;24840;47.508;19.376;2022-11-20T13:31:35;6.70;99.90
39095;DHT22;24840;47.508;19.376;2022-11-20T13:34:05;6.80;99.90
39095;DHT22;24840;47.508;19.376;2022-11-20T13:36:31;6.90;99.90
39095;DHT22;24840;47.508;19.376;2022-11-20T13:38:59;6.80;99.90
39095;DHT22;24840;47.508;19.376;2022-11-20T13:44:14;6.80;99.90
39095;DHT22;24840;47.508;19.376;2022-11-20T13:46:45;6.70;99.90
39095;DHT22;24840;47.508;19.376;2022-11-20T13:49:18;6.70;99.90
39095;DHT22;24840;47.508;19.376;2022-11-20T13:51:49;6.80;99.90
39095;DHT22;24840;47.508;19.376;2022-11-20T13:59:43;6.80;99.90
39095;DHT22;24840;47.508;19.376;2022-11-20T14:02:15;6.70;99.90
39095;DHT22;24840;47.508;19.376;2022-11-20T14:04:50;6.80;99.90
39095;DHT22;24840;47.508;19.376;2022-11-20T14:07:19;6.70;99.90
39095;DHT22;24840;47.508;19.376;2022-11-20T14:09:51;6.70;99.90
39095;DHT22;24840;47.508;19.376;2022-11-20T14:12:20;6.60;99.90
39095;DHT22;24840;47.508;19.376;2022-11-20T14:14:53;6.60;99.90
39095;DHT22;24840;47.508;19.376;2022-11-20T14:19:57;6.50;99.90
39095;DHT22;24840;47.508;19.376;2022-11-20T14:22:27;6.50;99.90
39095;DHT22;24840;47.508;19.376;2022-11-20T14:27:40;6.20;99.90
39095;DHT22;24840;47.508;19.376;2022-11-20T14:30:16;6.20;99.90
39095;DHT22;24840;47.508;19.376;2022-11-20T14:32:44;6.10;99.90
39095;DHT22;24840;47.508;19.376;2022-11-20T14:35:17;6.00;99.90
39095;DHT22;24840;47.508;19.376;2022-11-20T14:37:45;5.90;99.90
39095;DHT22;24840;47.508;19.376;2022-11-20T14:40:32;5.80;99.90
39095;DHT22;24840;47.508;19.376;2022-11-20T14:43:00;5.80;99.90
39095;DHT22;24840;47.508;19.376;2022-11-20T14:45:27;5.70;99.90
39095;DHT22;24840;47.508;19.376;2022-11-20T14:47:55;5.70;99.90
39095;DHT22;24840;47.508;19.376;2022-11-20T14:50:25;5.60;99.90
39095;DHT22;24840;47.508;19.376;2022-11-20T14:53:01;5.60;99.90
39095;DHT22;24840;47.508;19.376;2022-11-20T14:58:02;5.50;99.90
39095;DHT22;24840;47.508;19.376;2022-11-20T15:00:29;5.30;99.90
39095;DHT22;24840;47.508;19.376;2022-11-20T15:02:55;5.30;99.90
39095;DHT22;24840;47.508;19.376;2022-11-20T15:05:24;5.30;99.90
39095;DHT22;24840;47.508;19.376;2022-11-20T15:08:05;5.20;99.90
39095;DHT22;24840;47.508;19.376;2022-11-20T15:28:21;4.90;99.90
39095;DHT22;24840;47.508;19.376;2022-11-20T15:30:48;4.80;99.90
39095;DHT22;24840;47.508;19.376;2022-11-20T15:33:49;4.60;99.90
39095;DHT22;24840;47.508;19.376;2022-11-20T15:36:15;4.60;99.90
39095;DHT22;24840;47.508;19.376;2022-11-20T15:38:41;4.50;99.90
39095;DHT22;24840;47.508;19.376;2022-11-20T15:41:07;4.40;99.90
39095;DHT22;24840;47.508;19.376;2022-11-20T15:43:33;4.30;99.90
39095;DHT22;24840;47.508;19.376;2022-11-20T15:46:09;4.30;99.90
39095;DHT22;24840;47.508;19.376;2022-11-20T15:51:57;3.90;99.90
39095;DHT22;24840;47.508;19.376;2022-11-20T15:54:23;3.90;99.90
39095;DHT22;24840;47.508;19.376;2022-11-20T15:56:49;3.80;99.90
39095;DHT22;24840;47.508;19.376;2022-11-20T15:59:17;3.70;99.90
39095;DHT22;24840;47.508;19.376;2022-11-20T16:01:43;3.70;99.90
39095;DHT22;24840;47.508;19.376;2022-11-20T16:04:14;3.60;99.90
39095;DHT22;24840;47.508;19.376;2022-11-20T16:06:40;3.50;99.90
39095;DHT22;24840;47.508;19.376;2022-11-20T16:09:06;3.50;99.90
39095;DHT22;24840;47.508;19.376;2022-11-20T16:11:33;3.50;99.90
39095;DHT22;24840;47.508;19.376;2022-11-20T16:13:59;3.40;99.90
39095;DHT22;24840;47.508;19.376;2022-11-20T16:16:43;3.30;99.90
39095;DHT22;24840;47.508;19.376;2022-11-20T16:19:11;3.10;99.90
39095;DHT22;24840;47.508;19.376;2022-11-20T16:21:37;3.00;99.90
39095;DHT22;24840;47.508;19.376;2022-11-20T16:24:06;2.90;99.90
39095;DHT22;24840;47.508;19.376;2022-11-20T16:26:34;2.70;99.90
39095;DHT22;24840;47.508;19.376;2022-11-20T16:29:00;2.80;99.90
39095;DHT22;24840;47.508;19.376;2022-11-20T16:31:28;2.90;99.90
39095;DHT22;24840;47.508;19.376;2022-11-20T16:33:56;2.70;99.90
39095;DHT22;24840;47.508;19.376;2022-11-20T16:36:24;2.60;99.90
39095;DHT22;24840;47.508;19.376;2022-11-20T16:38:56;2.30;99.90
39095;DHT22;24840;47.508;19.376;2022-11-20T16:41:23;2.30;99.90
39095;DHT22;24840;47.508;19.376;2022-11-20T16:43:53;2.30;99.90
39095;DHT22;24840;47.508;19.376;2022-11-20T16:46:21;2.30;99.90
39095;DHT22;24840;47.508;19.376;2022-11-20T16:49:11;2.30;99.90
39095;DHT22;24840;47.508;19.376;2022-11-20T16:51:36;2.20;99.90
39095;DHT22;24840;47.508;19.376;2022-11-20T16:54:07;2.10;99.90
39095;DHT22;24840;47.508;19.376;2022-11-20T16:56:33;2.00;99.90
39095;DHT22;24840;47.508;19.376;2022-11-20T16:59:00;1.90;99.90
39095;DHT22;24840;47.508;19.376;2022-11-20T17:01:27;2.00;99.90
39095;DHT22;24840;47.508;19.376;2022-11-20T17:04:01;2.00;99.90
39095;DHT22;24840;47.508;19.376;2022-11-20T17:06:28;1.90;99.90
39095;DHT22;24840;47.508;19.376;2022-11-20T17:08:56;1.80;99.90
39095;DHT22;24840;47.508;19.376;2022-11-20T17:11:22;1.90;99.90
39095;DHT22;24840;47.508;19.376;2022-11-20T17:13:48;1.80;99.90
39095;DHT22;24840;47.508;19.376;2022-11-20T17:16:17;1.70;99.90
39095;DHT22;24840;47.508;19.376;2022-11-20T17:18:43;1.70;99.90
39095;DHT22;24840;47.508;19.376;2022-11-20T17:21:09;1.60;99.90
39095;DHT22;24840;47.508;19.376;2022-11-20T17:23:37;1.70;99.90
39095;DHT22;24840;47.508;19.376;2022-11-20T17:28:30;1.50;99.90
39095;DHT22;24840;47.508;19.376;2022-11-20T17:31:04;1.40;99.90
39095;DHT22;24840;47.508;19.376;2022-11-20T17:33:31;1.40;99.90
39095;DHT22;24840;47.508;19.376;2022-11-20T17:35:58;1.40;99.90
39095;DHT22;24840;47.508;19.376;2022-11-20T17:38:24;1.40;99.90
39095;DHT22;24840;47.508;19.376;2022-11-20T17:40:49;1.20;99.90
39095;DHT22;24840;47.508;19.376;2022-11-20T17:43:15;1.20;99.90
39095;DHT22;24840;47.508;19.376;2022-11-20T17:45:42;1.10;99.90
39095;DHT22;24840;47.508;19.376;2022-11-20T17:48:08;1.20;99.90
39095;DHT22;24840;47.508;19.376;2022-11-20T17:50:33;1.10;99.90
39095;DHT22;24840;47.508;19.376;2022-11-20T17:52:59;1.00;99.90
39095;DHT22;24840;47.508;19.376;2022-11-20T17:55:25;1.20;99.90
39095;DHT22;24840;47.508;19.376;2022-11-20T17:57:50;1.10;99.90
39095;DHT22;24840;47.508;19.376;2022-11-20T18:00:21;1.10;99.90
39095;DHT22;24840;47.508;19.376;2022-11-20T18:02:48;1.00;99.90
39095;DHT22;24840;47.508;19.376;2022-11-20T18:05:14;1.00;99.90
39095;DHT22;24840;47.508;19.376;2022-11-20T18:07:40;1.00;99.90
39095;DHT22;24840;47.508;19.376;2022-11-20T18:10:07;0.90;99.90
39095;DHT22;24840;47.508;19.376;2022-11-20T18:12:33;0.90;99.90
39095;DHT22;24840;47.508;19.376;2022-11-20T18:14:59;1.00;99.90
39095;DHT22;24840;47.508;19.376;2022-11-20T18:17:24;1.10;99.90
39095;DHT22;24840;47.508;19.376;2022-11-20T18:19:50;1.00;99.90
39095;DHT22;24840;47.508;19.376;2022-11-20T18:22:18;0.90;99.90
39095;DHT22;24840;47.508;19.376;2022-11-20T18:24:43;0.80;99.90
39095;DHT22;24840;47.508;19.376;2022-11-20T18:27:18;0.90;99.90
39095;DHT22;24840;47.508;19.376;2022-11-20T18:29:45;0.90;99.90
39095;DHT22;24840;47.508;19.376;2022-11-20T18:32:13;0.80;99.90
39095;DHT22;24840;47.508;19.376;2022-11-20T18:34:38;0.90;99.90
39095;DHT22;24840;47.508;19.376;2022-11-20T18:37:04;0.90;99.90
39095;DHT22;24840;47.508;19.376;2022-11-20T18:39:30;1.00;99.90
39095;DHT22;24840;47.508;19.376;2022-11-20T18:41:56;0.90;99.90
39095;DHT22;24840;47.508;19.376;2022-11-20T18:44:40;0.80;99.90
39095;DHT22;24840;47.508;19.376;2022-11-20T18:47:27;0.70;99.90
39095;DHT22;24840;47.508;19.376;2022-11-20T18:49:56;0.80;99.90
39095;DHT22;24840;47.508;19.376;2022-11-20T18:52:30;0.60;99.90
39095;DHT22;24840;47.508;19.376;2022-11-20T18:55:00;0.60;99.90
39095;DHT22;24840;47.508;19.376;2022-11-20T18:57:28;0.60;99.90
39095;DHT22;24840;47.508;19.376;2022-11-20T18:59:54;0.60;99.90
39095;DHT22;24840;47.508;19.376;2022-11-20T19:02:21;0.50;99.90
39095;DHT22;24840;47.508;19.376;2022-11-20T19:04:47;0.60;99.90
39095;DHT22;24840;47.508;19.376;2022-11-20T19:07:13;0.60;99.90
39095;DHT22;24840;47.508;19.376;2022-11-20T19:09:46;0.70;99.90
39095;DHT22;24840;47.508;19.376;2022-11-20T19:12:13;0.70;99.90
39095;DHT22;24840;47.508;19.376;2022-11-20T19:14:38;0.60;99.90
39095;DHT22;24840;47.508;19.376;2022-11-20T19:17:05;0.70;99.90
39095;DHT22;24840;47.508;19.376;2022-11-20T19:19:34;0.60;99.90
39095;DHT22;24840;47.508;19.376;2022-11-20T19:22:00;0.50;99.90
39095;DHT22;24840;47.508;19.376;2022-11-20T19:24:26;0.60;99.90
39095;DHT22;24840;47.508;19.376;2022-11-20T19:26:53;0.50;99.90
39095;DHT22;24840;47.508;19.376;2022-11-20T19:29:21;0.40;99.90
39095;DHT22;24840;47.508;19.376;2022-11-20T19:31:47;0.50;99.90